QTR6P EDDF-OTHH
Flight info
| Callsign | QTR6P |
|---|---|
| Flight time | 5h 34m |
| Altitude | 31000 |
| Route | SULUS7S/18 SULUS Z650 VEMUT/N0484F350 DCT ETVIS DCT BUDWA DCT BUDEX DCT ARSIN DCT BABIT DCT OSVIX DCT NISVA DCT USALI DCT OTKOK DCT RODIP DCT BELGI UT38 VESAR DCT NIKAS R785 KTN/N0492F370 R785 RASLI P559 TRF R23 NEVOL N318 TAMRO T503 KSA N687 KINIB Z511 GISRA L681 ORLEK ORLEK1L |
| Aircraft | A35K/H-SDE2E3GHIJ3J4J5LM1ORWXY/LB1D1 |
Departure
| Time | 2026-05-04 20:44 |
|---|---|
| Airport | Frankfurt Main Airport (EDDF) |
Arrival
| Time | 2026-05-05 02:18 |
|---|---|
| Airport | Hamad International Airport (OTHH) |
| Time | Latitude | Longitude | Altitude | Speed | Heading |
|---|---|---|---|---|---|
| 2026-05-04 19:45 | 50.05092 | 8.58850 | 371 ft | 0 kts | 340° |
| 2026-05-04 20:28 | 50.05076 | 8.58859 | 367 ft | 4 kts | 340° |
| 2026-05-04 20:28 | 50.05051 | 8.58874 | 367 ft | 3 kts | 340° |
| 2026-05-04 20:28 | 50.05030 | 8.58888 | 370 ft | 4 kts | 323° |
| 2026-05-04 20:28 | 50.05014 | 8.58917 | 365 ft | 4 kts | 283° |
| 2026-05-04 20:29 | 50.05014 | 8.58957 | 365 ft | 4 kts | 250° |
| 2026-05-04 20:29 | 50.05025 | 8.58995 | 368 ft | 4 kts | 242° |
| 2026-05-04 20:29 | 50.05034 | 8.59022 | 365 ft | 0 kts | 250° |
| 2026-05-04 20:33 | 50.05033 | 8.59020 | 365 ft | 1 kts | 250° |
| 2026-05-04 20:33 | 50.05030 | 8.59003 | 367 ft | 3 kts | 251° |
| 2026-05-04 20:33 | 50.05022 | 8.58966 | 368 ft | 4 kts | 251° |
| 2026-05-04 20:33 | 50.05010 | 8.58913 | 365 ft | 6 kts | 251° |
| 2026-05-04 20:34 | 50.04994 | 8.58844 | 365 ft | 7 kts | 248° |
| 2026-05-04 20:34 | 50.04973 | 8.58761 | 371 ft | 9 kts | 248° |
| 2026-05-04 20:34 | 50.04949 | 8.58665 | 370 ft | 10 kts | 249° |
| 2026-05-04 20:34 | 50.04922 | 8.58557 | 373 ft | 11 kts | 250° |
| 2026-05-04 20:35 | 50.04895 | 8.58438 | 369 ft | 12 kts | 250° |
| 2026-05-04 20:35 | 50.04864 | 8.58307 | 369 ft | 13 kts | 250° |
| 2026-05-04 20:35 | 50.04830 | 8.58166 | 371 ft | 14 kts | 249° |
| 2026-05-04 20:35 | 50.04789 | 8.58009 | 367 ft | 16 kts | 236° |
| 2026-05-04 20:36 | 50.04709 | 8.57884 | 370 ft | 16 kts | 233° |
| 2026-05-04 20:36 | 50.04665 | 8.57720 | 371 ft | 17 kts | 250° |
| 2026-05-04 20:36 | 50.04623 | 8.57545 | 370 ft | 18 kts | 250° |
| 2026-05-04 20:36 | 50.04579 | 8.57360 | 369 ft | 19 kts | 250° |
| 2026-05-04 20:37 | 50.04549 | 8.57233 | 371 ft | 19 kts | 250° |
| 2026-05-04 20:37 | 50.04502 | 8.57036 | 368 ft | 20 kts | 250° |
| 2026-05-04 20:37 | 50.04455 | 8.56841 | 373 ft | 19 kts | 250° |
| 2026-05-04 20:37 | 50.04407 | 8.56638 | 370 ft | 21 kts | 250° |
| 2026-05-04 20:38 | 50.04355 | 8.56422 | 369 ft | 22 kts | 250° |
| 2026-05-04 20:38 | 50.04301 | 8.56194 | 369 ft | 23 kts | 250° |
| 2026-05-04 20:38 | 50.04244 | 8.55958 | 364 ft | 24 kts | 249° |
| 2026-05-04 20:38 | 50.04185 | 8.55712 | 367 ft | 25 kts | 249° |
| 2026-05-04 20:39 | 50.04124 | 8.55457 | 364 ft | 25 kts | 250° |
| 2026-05-04 20:39 | 50.04063 | 8.55203 | 364 ft | 25 kts | 249° |
| 2026-05-04 20:39 | 50.04003 | 8.54951 | 367 ft | 25 kts | 249° |
| 2026-05-04 20:39 | 50.03940 | 8.54687 | 363 ft | 27 kts | 250° |
| 2026-05-04 20:40 | 50.03884 | 8.54451 | 362 ft | 21 kts | 250° |
| 2026-05-04 20:40 | 50.03807 | 8.54247 | 361 ft | 22 kts | 242° |
| 2026-05-04 20:40 | 50.03751 | 8.54019 | 357 ft | 23 kts | 249° |
| 2026-05-04 20:40 | 50.03694 | 8.53780 | 351 ft | 24 kts | 249° |
| 2026-05-04 20:41 | 50.03633 | 8.53534 | 355 ft | 25 kts | 248° |
| 2026-05-04 20:41 | 50.03570 | 8.53280 | 356 ft | 26 kts | 249° |
| 2026-05-04 20:41 | 50.03509 | 8.53021 | 354 ft | 26 kts | 250° |
| 2026-05-04 20:41 | 50.03461 | 8.52832 | 351 ft | 17 kts | 247° |
| 2026-05-04 20:42 | 50.03419 | 8.52672 | 351 ft | 14 kts | 249° |
| 2026-05-04 20:42 | 50.03360 | 8.52594 | 351 ft | 11 kts | 186° |
| 2026-05-04 20:42 | 50.03328 | 8.52593 | 347 ft | 0 kts | 180° |
| 2026-05-04 20:43 | 50.03161 | 8.52595 | 348 ft | 57 kts | 179° |
| 2026-05-04 20:43 | 50.02550 | 8.52601 | 336 ft | 117 kts | 179° |
| 2026-05-04 20:43 | 50.01556 | 8.52611 | 337 ft | 167 kts | 180° |
| 2026-05-04 20:43 | 50.00339 | 8.52634 | 880 ft | 170 kts | 180° |
| 2026-05-04 20:44 | 49.99125 | 8.52641 | 1393 ft | 179 kts | 180° |
| 2026-05-04 20:44 | 49.97823 | 8.52685 | 1710 ft | 200 kts | 175° |
| 2026-05-04 20:44 | 49.96470 | 8.53500 | 1816 ft | 222 kts | 138° |
| 2026-05-04 20:44 | 49.95540 | 8.55445 | 2260 ft | 227 kts | 119° |
| 2026-05-04 20:45 | 49.94783 | 8.57612 | 2871 ft | 229 kts | 118° |
| 2026-05-04 20:45 | 49.94154 | 8.59890 | 3431 ft | 232 kts | 104° |
| 2026-05-04 20:45 | 49.93928 | 8.62429 | 3809 ft | 247 kts | 94° |
| 2026-05-04 20:45 | 49.93836 | 8.65178 | 4145 ft | 261 kts | 93° |
| 2026-05-04 20:46 | 49.93652 | 8.68009 | 4712 ft | 266 kts | 105° |
| 2026-05-04 20:46 | 49.92788 | 8.70504 | 5302 ft | 264 kts | 136° |
| 2026-05-04 20:46 | 49.91366 | 8.72293 | 5950 ft | 264 kts | 147° |
| 2026-05-04 20:46 | 49.90745 | 8.72970 | 6227 ft | 265 kts | 147° |
| 2026-05-04 20:47 | 49.89259 | 8.74608 | 6855 ft | 267 kts | 144° |
| 2026-05-04 20:47 | 49.87978 | 8.76781 | 7468 ft | 274 kts | 126° |
| 2026-05-04 20:47 | 49.86997 | 8.79334 | 8097 ft | 278 kts | 122° |
| 2026-05-04 20:47 | 49.86075 | 8.81935 | 8725 ft | 281 kts | 122° |
| 2026-05-04 20:48 | 49.85129 | 8.84601 | 9397 ft | 283 kts | 122° |
| 2026-05-04 20:48 | 49.84168 | 8.87272 | 10046 ft | 285 kts | 123° |
| 2026-05-04 20:48 | 49.83193 | 8.89967 | 10588 ft | 291 kts | 123° |
| 2026-05-04 20:48 | 49.82175 | 8.92764 | 10850 ft | 306 kts | 122° |
| 2026-05-04 20:49 | 49.81099 | 8.95720 | 11080 ft | 322 kts | 122° |
| 2026-05-04 20:49 | 49.79972 | 8.98811 | 11319 ft | 337 kts | 122° |
| 2026-05-04 20:49 | 49.78794 | 9.02046 | 11559 ft | 351 kts | 122° |
| 2026-05-04 20:49 | 49.77570 | 9.05404 | 11784 ft | 365 kts | 122° |
| 2026-05-04 20:50 | 49.76373 | 9.08935 | 12061 ft | 376 kts | 115° |
| 2026-05-04 20:50 | 49.75576 | 9.12837 | 12503 ft | 383 kts | 107° |
| 2026-05-04 20:50 | 49.74938 | 9.16855 | 12978 ft | 386 kts | 106° |
| 2026-05-04 20:50 | 49.74318 | 9.20855 | 13446 ft | 389 kts | 106° |
| 2026-05-04 20:51 | 49.73663 | 9.24991 | 13911 ft | 393 kts | 106° |
| 2026-05-04 20:51 | 49.73009 | 9.29044 | 14338 ft | 395 kts | 106° |
| 2026-05-04 20:51 | 49.72339 | 9.33176 | 14780 ft | 398 kts | 107° |
| 2026-05-04 20:51 | 49.71660 | 9.37345 | 15189 ft | 401 kts | 107° |
| 2026-05-04 20:52 | 49.70978 | 9.41526 | 15638 ft | 403 kts | 107° |
| 2026-05-04 20:52 | 49.70287 | 9.45745 | 16070 ft | 406 kts | 107° |
| 2026-05-04 20:52 | 49.69591 | 9.49983 | 16491 ft | 408 kts | 107° |
| 2026-05-04 20:52 | 49.68888 | 9.54253 | 16899 ft | 411 kts | 107° |
| 2026-05-04 20:53 | 49.68179 | 9.58550 | 17327 ft | 414 kts | 107° |
| 2026-05-04 20:53 | 49.67488 | 9.62869 | 17743 ft | 417 kts | 104° |
| 2026-05-04 20:53 | 49.67208 | 9.67365 | 18131 ft | 425 kts | 90° |
| 2026-05-04 20:53 | 49.67685 | 9.71886 | 18507 ft | 430 kts | 78° |
| 2026-05-04 20:54 | 49.68471 | 9.76364 | 18854 ft | 434 kts | 76° |
| 2026-05-04 20:54 | 49.69290 | 9.80868 | 19203 ft | 436 kts | 76° |
| 2026-05-04 20:54 | 49.70105 | 9.85399 | 19555 ft | 439 kts | 76° |
| 2026-05-04 20:54 | 49.70920 | 9.89957 | 19902 ft | 442 kts | 76° |
| 2026-05-04 20:55 | 49.71960 | 9.94443 | 20237 ft | 447 kts | 66° |
| 2026-05-04 20:55 | 49.73537 | 9.98593 | 20582 ft | 450 kts | 56° |
| 2026-05-04 20:55 | 49.75351 | 10.02547 | 20967 ft | 452 kts | 55° |
| 2026-05-04 20:55 | 49.77170 | 10.06442 | 21298 ft | 455 kts | 54° |
| 2026-05-04 20:56 | 49.79025 | 10.10427 | 21624 ft | 458 kts | 55° |
| 2026-05-04 20:56 | 49.80883 | 10.14437 | 21967 ft | 460 kts | 55° |
| 2026-05-04 20:56 | 49.82754 | 10.18492 | 22323 ft | 463 kts | 55° |
| 2026-05-04 20:56 | 49.84634 | 10.22574 | 22667 ft | 465 kts | 55° |
| 2026-05-04 20:57 | 49.86516 | 10.26670 | 23002 ft | 468 kts | 55° |
| 2026-05-04 20:57 | 49.88405 | 10.30792 | 23374 ft | 471 kts | 55° |
| 2026-05-04 20:57 | 49.90308 | 10.34947 | 23689 ft | 473 kts | 55° |
| 2026-05-04 20:57 | 49.92213 | 10.39116 | 23984 ft | 475 kts | 55° |
| 2026-05-04 20:58 | 49.94129 | 10.43316 | 24275 ft | 478 kts | 55° |
| 2026-05-04 20:58 | 49.96052 | 10.47538 | 24582 ft | 480 kts | 55° |
| 2026-05-04 20:58 | 49.97986 | 10.51792 | 24868 ft | 483 kts | 55° |
| 2026-05-04 20:58 | 49.99924 | 10.56059 | 25193 ft | 484 kts | 55° |
| 2026-05-04 20:59 | 50.01839 | 10.60298 | 25518 ft | 486 kts | 56° |
| 2026-05-04 20:59 | 50.03577 | 10.64805 | 25798 ft | 487 kts | 65° |
| 2026-05-04 20:59 | 50.04815 | 10.69715 | 26099 ft | 488 kts | 76° |
| 2026-05-04 20:59 | 50.05456 | 10.74888 | 26394 ft | 488 kts | 86° |
| 2026-05-04 21:00 | 50.05479 | 10.80166 | 26705 ft | 487 kts | 98° |
| 2026-05-04 21:00 | 50.04895 | 10.85332 | 27021 ft | 485 kts | 108° |
| 2026-05-04 21:00 | 50.03964 | 10.90386 | 27336 ft | 486 kts | 110° |
| 2026-05-04 21:00 | 50.02922 | 10.95388 | 27662 ft | 488 kts | 111° |
| 2026-05-04 21:01 | 50.01825 | 11.00399 | 27980 ft | 490 kts | 112° |
| 2026-05-04 21:01 | 50.00713 | 11.05419 | 28277 ft | 493 kts | 112° |
| 2026-05-04 21:01 | 49.99597 | 11.10478 | 28579 ft | 495 kts | 112° |
| 2026-05-04 21:01 | 49.98487 | 11.15559 | 28880 ft | 497 kts | 111° |
| 2026-05-04 21:02 | 49.97383 | 11.20659 | 29178 ft | 500 kts | 111° |
| 2026-05-04 21:02 | 49.96281 | 11.25788 | 29461 ft | 502 kts | 111° |
| 2026-05-04 21:02 | 49.95186 | 11.30943 | 29728 ft | 504 kts | 111° |
| 2026-05-04 21:02 | 49.94088 | 11.36125 | 30005 ft | 506 kts | 111° |
| 2026-05-04 21:03 | 49.92987 | 11.41316 | 30227 ft | 508 kts | 111° |
| 2026-05-04 21:03 | 49.91929 | 11.46544 | 30533 ft | 507 kts | 109° |
| 2026-05-04 21:03 | 49.90960 | 11.51796 | 30950 ft | 505 kts | 108° |
| 2026-05-04 21:03 | 49.90041 | 11.56974 | 31351 ft | 503 kts | 108° |
| 2026-05-04 21:04 | 49.89117 | 11.62203 | 31735 ft | 501 kts | 108° |
| 2026-05-04 21:04 | 49.88289 | 11.67454 | 32084 ft | 501 kts | 103° |
| 2026-05-04 21:04 | 49.87727 | 11.72783 | 32439 ft | 501 kts | 101° |
| 2026-05-04 21:04 | 49.87221 | 11.78133 | 32803 ft | 499 kts | 101° |
| 2026-05-04 21:05 | 49.86745 | 11.83457 | 33143 ft | 498 kts | 101° |
| 2026-05-04 21:05 | 49.86279 | 11.88768 | 33475 ft | 496 kts | 100° |
| 2026-05-04 21:05 | 49.85817 | 11.94049 | 33878 ft | 494 kts | 100° |
| 2026-05-04 21:05 | 49.85353 | 11.99317 | 34178 ft | 493 kts | 101° |
| 2026-05-04 21:06 | 49.84885 | 12.04584 | 34376 ft | 493 kts | 101° |
| 2026-05-04 21:06 | 49.84412 | 12.09848 | 34568 ft | 494 kts | 101° |
| 2026-05-04 21:06 | 49.83934 | 12.15120 | 34769 ft | 494 kts | 101° |
| 2026-05-04 21:06 | 49.83452 | 12.20394 | 34947 ft | 494 kts | 101° |
| 2026-05-04 21:07 | 49.82967 | 12.25670 | 35126 ft | 494 kts | 101° |
| 2026-05-04 21:07 | 49.82483 | 12.30932 | 35331 ft | 495 kts | 101° |
| 2026-05-04 21:07 | 49.81996 | 12.36220 | 35435 ft | 496 kts | 101° |
| 2026-05-04 21:07 | 49.81368 | 12.41474 | 35579 ft | 495 kts | 107° |
| 2026-05-04 21:08 | 49.80304 | 12.46515 | 35761 ft | 491 kts | 116° |
| 2026-05-04 21:08 | 49.78777 | 12.51196 | 35925 ft | 487 kts | 124° |
| 2026-05-04 21:08 | 49.76988 | 12.55634 | 36083 ft | 486 kts | 126° |
| 2026-05-04 21:08 | 49.75116 | 12.59984 | 36245 ft | 485 kts | 127° |
| 2026-05-04 21:09 | 49.73226 | 12.64238 | 36409 ft | 485 kts | 128° |
| 2026-05-04 21:09 | 49.71299 | 12.68527 | 36526 ft | 485 kts | 128° |
| 2026-05-04 21:09 | 49.69376 | 12.72805 | 36693 ft | 485 kts | 128° |
| 2026-05-04 21:09 | 49.67455 | 12.77096 | 36787 ft | 486 kts | 128° |
| 2026-05-04 21:10 | 49.65536 | 12.81397 | 36903 ft | 487 kts | 127° |
| 2026-05-04 21:10 | 49.63614 | 12.85723 | 36952 ft | 489 kts | 127° |
| 2026-05-04 21:10 | 49.59750 | 12.94408 | 36950 ft | 493 kts | 127° |
| 2026-05-04 21:11 | 49.55867 | 13.03114 | 36947 ft | 492 kts | 127° |
| 2026-05-04 21:11 | 49.52010 | 13.11733 | 36947 ft | 492 kts | 127° |
| 2026-05-04 21:12 | 49.48120 | 13.20395 | 36944 ft | 492 kts | 128° |
| 2026-05-04 21:12 | 49.44221 | 13.29046 | 36946 ft | 492 kts | 128° |
| 2026-05-04 21:13 | 49.40321 | 13.37675 | 36946 ft | 491 kts | 128° |
| 2026-05-04 21:13 | 49.36421 | 13.46275 | 36956 ft | 491 kts | 128° |
| 2026-05-04 21:14 | 49.32509 | 13.54871 | 36953 ft | 492 kts | 128° |
| 2026-05-04 21:14 | 49.28583 | 13.63472 | 36951 ft | 492 kts | 128° |
| 2026-05-04 21:15 | 49.24593 | 13.71987 | 36952 ft | 492 kts | 129° |
| 2026-05-04 21:15 | 49.20565 | 13.80354 | 36950 ft | 492 kts | 129° |
| 2026-05-04 21:16 | 49.16508 | 13.88775 | 36949 ft | 493 kts | 129° |
| 2026-05-04 21:16 | 49.12448 | 13.97216 | 36946 ft | 494 kts | 129° |
| 2026-05-04 21:17 | 49.08381 | 14.05661 | 36943 ft | 493 kts | 129° |
| 2026-05-04 21:17 | 49.04319 | 14.14071 | 36938 ft | 492 kts | 129° |
| 2026-05-04 21:18 | 49.00244 | 14.22478 | 36921 ft | 492 kts | 129° |
| 2026-05-04 21:18 | 48.96159 | 14.30877 | 36933 ft | 494 kts | 129° |
| 2026-05-04 21:19 | 48.91982 | 14.39197 | 36922 ft | 494 kts | 132° |
| 2026-05-04 21:19 | 48.87578 | 14.47122 | 36922 ft | 493 kts | 133° |
| 2026-05-04 21:20 | 48.83114 | 14.55051 | 36916 ft | 493 kts | 133° |
| 2026-05-04 21:20 | 48.78685 | 14.63014 | 36916 ft | 493 kts | 132° |
| 2026-05-04 21:21 | 48.74283 | 14.70976 | 36916 ft | 493 kts | 132° |
| 2026-05-04 21:21 | 48.69877 | 14.78936 | 36916 ft | 493 kts | 132° |
| 2026-05-04 21:22 | 48.65467 | 14.86874 | 36918 ft | 493 kts | 132° |
| 2026-05-04 21:22 | 48.61043 | 14.94806 | 36913 ft | 493 kts | 132° |
| 2026-05-04 21:23 | 48.56627 | 15.02702 | 36921 ft | 492 kts | 132° |
| 2026-05-04 21:23 | 48.52208 | 15.10582 | 36914 ft | 492 kts | 132° |
| 2026-05-04 21:24 | 48.47782 | 15.18450 | 36917 ft | 492 kts | 132° |
| 2026-05-04 21:24 | 48.43378 | 15.26254 | 36910 ft | 492 kts | 132° |
| 2026-05-04 21:25 | 48.38944 | 15.34087 | 36906 ft | 492 kts | 132° |
| 2026-05-04 21:25 | 48.34503 | 15.41912 | 36925 ft | 492 kts | 132° |
| 2026-05-04 21:26 | 48.30050 | 15.49736 | 36907 ft | 492 kts | 132° |
| 2026-05-04 21:26 | 48.26346 | 15.56225 | 36911 ft | 492 kts | 132° |
| 2026-05-04 21:27 | 48.21892 | 15.64007 | 36921 ft | 492 kts | 132° |
| 2026-05-04 21:27 | 48.17431 | 15.71779 | 36929 ft | 491 kts | 132° |
| 2026-05-04 21:28 | 48.12968 | 15.79531 | 36928 ft | 491 kts | 132° |
| 2026-05-04 21:28 | 48.08499 | 15.87272 | 36932 ft | 491 kts | 132° |
| 2026-05-04 21:29 | 48.04048 | 15.94960 | 36936 ft | 492 kts | 132° |
| 2026-05-04 21:29 | 47.99562 | 16.02684 | 36931 ft | 493 kts | 132° |
| 2026-05-04 21:30 | 47.95066 | 16.10405 | 36940 ft | 493 kts | 132° |
| 2026-05-04 21:30 | 47.90559 | 16.18121 | 36943 ft | 492 kts | 132° |
| 2026-05-04 21:31 | 47.83800 | 16.29652 | 36941 ft | 493 kts | 132° |
| 2026-05-04 21:32 | 47.79277 | 16.37342 | 36944 ft | 494 kts | 132° |
| 2026-05-04 21:32 | 47.74740 | 16.45032 | 36942 ft | 495 kts | 132° |
| 2026-05-04 21:33 | 47.70200 | 16.52705 | 36946 ft | 494 kts | 132° |
| 2026-05-04 21:33 | 47.65686 | 16.60315 | 36950 ft | 494 kts | 133° |
| 2026-05-04 21:34 | 47.61129 | 16.67972 | 36959 ft | 495 kts | 133° |
| 2026-05-04 21:34 | 47.56511 | 16.75519 | 36962 ft | 494 kts | 137° |
| 2026-05-04 21:35 | 47.51560 | 16.82559 | 36962 ft | 493 kts | 138° |
| 2026-05-04 21:35 | 47.46547 | 16.89489 | 36967 ft | 494 kts | 138° |
| 2026-05-04 21:36 | 47.41512 | 16.96403 | 36967 ft | 494 kts | 138° |
| 2026-05-04 21:36 | 47.36481 | 17.03311 | 36974 ft | 494 kts | 138° |
| 2026-05-04 21:37 | 47.31455 | 17.10204 | 36981 ft | 493 kts | 138° |
| 2026-05-04 21:37 | 47.26458 | 17.17041 | 36990 ft | 493 kts | 138° |
| 2026-05-04 21:38 | 47.21426 | 17.23907 | 36991 ft | 494 kts | 138° |
| 2026-05-04 21:38 | 47.16378 | 17.30775 | 36992 ft | 495 kts | 138° |
| 2026-05-04 21:39 | 47.11322 | 17.37636 | 37000 ft | 495 kts | 138° |
| 2026-05-04 21:39 | 47.06260 | 17.44486 | 37003 ft | 494 kts | 138° |
| 2026-05-04 21:40 | 47.01197 | 17.51317 | 37012 ft | 494 kts | 138° |
| 2026-05-04 21:40 | 46.96125 | 17.58143 | 37009 ft | 496 kts | 138° |
| 2026-05-04 21:41 | 46.91041 | 17.64969 | 37018 ft | 496 kts | 138° |
| 2026-05-04 21:41 | 46.85986 | 17.71735 | 37018 ft | 496 kts | 138° |
| 2026-05-04 21:42 | 46.80895 | 17.78533 | 37020 ft | 496 kts | 138° |
| 2026-05-04 21:42 | 46.75793 | 17.85327 | 37027 ft | 497 kts | 138° |
| 2026-05-04 21:43 | 46.70683 | 17.92112 | 37026 ft | 497 kts | 138° |
| 2026-05-04 21:43 | 46.65565 | 17.98890 | 37029 ft | 497 kts | 138° |
| 2026-05-04 21:44 | 46.60443 | 18.05656 | 37028 ft | 497 kts | 138° |
| 2026-05-04 21:44 | 46.55310 | 18.12417 | 37030 ft | 498 kts | 138° |
| 2026-05-04 21:45 | 46.50169 | 18.19172 | 37039 ft | 498 kts | 138° |
| 2026-05-04 21:45 | 46.45048 | 18.25882 | 37039 ft | 498 kts | 138° |
| 2026-05-04 21:46 | 46.39899 | 18.32611 | 37039 ft | 498 kts | 138° |
| 2026-05-04 21:46 | 46.34747 | 18.39327 | 37041 ft | 498 kts | 138° |
| 2026-05-04 21:47 | 46.29590 | 18.46031 | 37047 ft | 498 kts | 138° |
| 2026-05-04 21:47 | 46.24426 | 18.52726 | 37054 ft | 499 kts | 138° |
| 2026-05-04 21:48 | 46.19254 | 18.59414 | 37055 ft | 499 kts | 138° |
| 2026-05-04 21:48 | 46.14078 | 18.66088 | 37059 ft | 499 kts | 138° |
| 2026-05-04 21:49 | 46.08895 | 18.72757 | 37056 ft | 499 kts | 138° |
| 2026-05-04 21:49 | 46.03711 | 18.79408 | 37058 ft | 499 kts | 138° |
| 2026-05-04 21:50 | 45.98554 | 18.86008 | 37060 ft | 499 kts | 138° |
| 2026-05-04 21:50 | 45.93361 | 18.92635 | 37062 ft | 500 kts | 138° |
| 2026-05-04 21:51 | 45.88372 | 18.99592 | 37064 ft | 499 kts | 133° |
| 2026-05-04 21:51 | 45.83662 | 19.06912 | 37061 ft | 499 kts | 132° |
| 2026-05-04 21:52 | 45.78931 | 19.14199 | 37064 ft | 499 kts | 133° |
| 2026-05-04 21:52 | 45.74126 | 19.21427 | 37057 ft | 500 kts | 133° |
| 2026-05-04 21:53 | 45.69298 | 19.28609 | 37062 ft | 501 kts | 133° |
| 2026-05-04 21:53 | 45.64490 | 19.35735 | 37064 ft | 501 kts | 133° |
| 2026-05-04 21:54 | 45.59642 | 19.42909 | 37064 ft | 501 kts | 133° |
| 2026-05-04 21:54 | 45.54793 | 19.50067 | 37064 ft | 501 kts | 134° |
| 2026-05-04 21:55 | 45.49940 | 19.57214 | 37065 ft | 501 kts | 134° |
| 2026-05-04 21:55 | 45.45085 | 19.64346 | 37061 ft | 501 kts | 134° |
| 2026-05-04 21:56 | 45.40221 | 19.71470 | 37061 ft | 501 kts | 134° |
| 2026-05-04 21:56 | 45.35354 | 19.78580 | 37066 ft | 502 kts | 134° |
| 2026-05-04 21:57 | 45.30473 | 19.85693 | 37069 ft | 502 kts | 134° |
| 2026-05-04 21:57 | 45.25585 | 19.92798 | 37067 ft | 502 kts | 134° |
| 2026-05-04 21:58 | 45.20728 | 19.99839 | 37069 ft | 502 kts | 134° |
| 2026-05-04 21:58 | 45.15833 | 20.06915 | 37068 ft | 503 kts | 134° |
| 2026-05-04 21:59 | 45.10930 | 20.13984 | 37069 ft | 503 kts | 134° |
| 2026-05-04 21:59 | 45.06021 | 20.21045 | 37073 ft | 503 kts | 134° |
| 2026-05-04 22:00 | 45.01110 | 20.28090 | 37074 ft | 503 kts | 134° |
| 2026-05-04 22:00 | 44.96190 | 20.35130 | 37079 ft | 504 kts | 134° |
| 2026-05-04 22:01 | 44.91259 | 20.42167 | 37077 ft | 504 kts | 134° |
| 2026-05-04 22:01 | 44.86321 | 20.49195 | 37073 ft | 504 kts | 134° |
| 2026-05-04 22:02 | 44.81379 | 20.56211 | 37094 ft | 504 kts | 134° |
| 2026-05-04 22:02 | 44.76428 | 20.63221 | 37078 ft | 505 kts | 134° |
| 2026-05-04 22:03 | 44.71468 | 20.70227 | 37079 ft | 505 kts | 134° |
| 2026-05-04 22:03 | 44.66534 | 20.77179 | 37080 ft | 505 kts | 134° |
| 2026-05-04 22:04 | 44.61562 | 20.84165 | 37082 ft | 505 kts | 134° |
| 2026-05-04 22:04 | 44.56584 | 20.91141 | 37083 ft | 506 kts | 134° |
| 2026-05-04 22:05 | 44.51600 | 20.98110 | 37085 ft | 506 kts | 134° |
| 2026-05-04 22:05 | 44.46612 | 21.05065 | 37087 ft | 506 kts | 134° |
| 2026-05-04 22:06 | 44.41622 | 21.12005 | 37081 ft | 505 kts | 134° |
| 2026-05-04 22:06 | 44.36630 | 21.18930 | 37101 ft | 505 kts | 134° |
| 2026-05-04 22:07 | 44.31633 | 21.25838 | 37082 ft | 506 kts | 134° |
| 2026-05-04 22:07 | 44.26368 | 21.32277 | 37101 ft | 507 kts | 140° |
| 2026-05-04 22:08 | 44.20903 | 21.38475 | 37097 ft | 506 kts | 140° |
| 2026-05-04 22:08 | 44.15466 | 21.44714 | 37103 ft | 506 kts | 139° |
| 2026-05-04 22:09 | 44.10060 | 21.51016 | 37096 ft | 506 kts | 139° |
| 2026-05-04 22:09 | 44.04662 | 21.57332 | 37119 ft | 508 kts | 139° |
| 2026-05-04 22:10 | 43.99241 | 21.63663 | 37105 ft | 510 kts | 139° |
| 2026-05-04 22:10 | 43.93800 | 21.69995 | 37105 ft | 510 kts | 139° |
| 2026-05-04 22:11 | 43.88355 | 21.76312 | 37104 ft | 510 kts | 139° |
| 2026-05-04 22:11 | 43.82936 | 21.82584 | 37104 ft | 510 kts | 139° |
| 2026-05-04 22:12 | 43.77493 | 21.88869 | 37107 ft | 509 kts | 139° |
| 2026-05-04 22:12 | 43.72045 | 21.95145 | 37105 ft | 509 kts | 139° |
| 2026-05-04 22:13 | 43.66596 | 22.01404 | 37108 ft | 509 kts | 139° |
| 2026-05-04 22:13 | 43.61138 | 22.07661 | 37108 ft | 510 kts | 139° |
| 2026-05-04 22:14 | 43.55684 | 22.13897 | 37115 ft | 510 kts | 139° |
| 2026-05-04 22:14 | 43.51142 | 22.19079 | 37116 ft | 510 kts | 139° |
| 2026-05-04 22:15 | 43.45675 | 22.25301 | 37115 ft | 510 kts | 139° |
| 2026-05-04 22:15 | 43.40205 | 22.31512 | 37116 ft | 509 kts | 139° |
| 2026-05-04 22:16 | 43.34738 | 22.37705 | 37121 ft | 509 kts | 139° |
| 2026-05-04 22:16 | 43.29268 | 22.43887 | 37120 ft | 509 kts | 139° |
| 2026-05-04 22:17 | 43.23788 | 22.50066 | 37137 ft | 510 kts | 139° |
| 2026-05-04 22:17 | 43.18308 | 22.56228 | 37129 ft | 509 kts | 139° |
| 2026-05-04 22:18 | 43.12824 | 22.62382 | 37141 ft | 509 kts | 139° |
| 2026-05-04 22:18 | 43.07342 | 22.68517 | 37135 ft | 509 kts | 140° |
| 2026-05-04 22:19 | 43.01859 | 22.74639 | 37141 ft | 509 kts | 140° |
| 2026-05-04 22:19 | 42.96411 | 22.80714 | 37149 ft | 509 kts | 140° |
| 2026-05-04 22:20 | 42.91171 | 22.87200 | 37151 ft | 508 kts | 135° |
| 2026-05-04 22:20 | 42.86100 | 22.93903 | 37154 ft | 508 kts | 135° |
| 2026-05-04 22:21 | 42.80997 | 23.00552 | 37136 ft | 507 kts | 135° |
| 2026-05-04 22:21 | 42.75849 | 23.07136 | 37142 ft | 508 kts | 136° |
| 2026-05-04 22:22 | 42.70678 | 23.13694 | 37136 ft | 508 kts | 136° |
| 2026-05-04 22:22 | 42.65509 | 23.20235 | 37132 ft | 507 kts | 136° |
| 2026-05-04 22:23 | 42.60353 | 23.26748 | 37130 ft | 506 kts | 136° |
| 2026-05-04 22:23 | 42.55203 | 23.33241 | 37133 ft | 505 kts | 136° |
| 2026-05-04 22:24 | 42.50048 | 23.39724 | 37133 ft | 505 kts | 136° |
| 2026-05-04 22:24 | 42.44889 | 23.46197 | 37138 ft | 504 kts | 136° |
| 2026-05-04 22:25 | 42.39735 | 23.52648 | 37135 ft | 504 kts | 136° |
| 2026-05-04 22:25 | 42.34580 | 23.59086 | 37135 ft | 504 kts | 136° |
| 2026-05-04 22:26 | 42.29424 | 23.65509 | 37132 ft | 504 kts | 136° |
| 2026-05-04 22:26 | 42.24265 | 23.71832 | 37132 ft | 504 kts | 137° |
| 2026-05-04 22:27 | 42.19045 | 23.78153 | 37128 ft | 504 kts | 137° |
| 2026-05-04 22:27 | 42.13821 | 23.84474 | 37132 ft | 504 kts | 137° |
| 2026-05-04 22:28 | 42.08604 | 23.90787 | 37120 ft | 504 kts | 137° |
| 2026-05-04 22:28 | 42.03383 | 23.97096 | 37124 ft | 504 kts | 137° |
| 2026-05-04 22:29 | 41.98164 | 24.03389 | 37116 ft | 504 kts | 137° |
| 2026-05-04 22:29 | 41.92935 | 24.09679 | 37126 ft | 505 kts | 137° |
| 2026-05-04 22:30 | 41.87731 | 24.15923 | 37119 ft | 505 kts | 137° |
| 2026-05-04 22:30 | 41.82487 | 24.22202 | 37130 ft | 505 kts | 137° |
| 2026-05-04 22:31 | 41.77238 | 24.28473 | 37129 ft | 505 kts | 137° |
| 2026-05-04 22:31 | 41.71990 | 24.34730 | 37130 ft | 505 kts | 137° |
| 2026-05-04 22:32 | 41.66731 | 24.40983 | 37129 ft | 505 kts | 137° |
| 2026-05-04 22:32 | 41.61480 | 24.47212 | 37129 ft | 504 kts | 137° |
| 2026-05-04 22:33 | 41.56228 | 24.53430 | 37132 ft | 504 kts | 137° |
| 2026-05-04 22:33 | 41.50971 | 24.59640 | 37130 ft | 505 kts | 137° |
| 2026-05-04 22:34 | 41.45707 | 24.65844 | 37118 ft | 505 kts | 137° |
| 2026-05-04 22:34 | 41.40449 | 24.72055 | 37117 ft | 505 kts | 136° |
| 2026-05-04 22:35 | 41.35448 | 24.78527 | 37109 ft | 505 kts | 134° |
| 2026-05-04 22:35 | 41.30500 | 24.85152 | 37108 ft | 505 kts | 134° |
| 2026-05-04 22:36 | 41.25516 | 24.91731 | 37100 ft | 505 kts | 134° |
| 2026-05-04 22:36 | 41.20492 | 24.98276 | 37103 ft | 505 kts | 134° |
| 2026-05-04 22:37 | 41.15460 | 25.04794 | 37088 ft | 506 kts | 134° |
| 2026-05-04 22:37 | 41.10404 | 25.11329 | 37089 ft | 507 kts | 134° |
| 2026-05-04 22:38 | 41.05341 | 25.17860 | 37079 ft | 508 kts | 135° |
| 2026-05-04 22:38 | 41.00313 | 25.24334 | 37081 ft | 508 kts | 135° |
| 2026-05-04 22:39 | 40.95247 | 25.30842 | 37074 ft | 508 kts | 135° |
| 2026-05-04 22:39 | 40.90175 | 25.37342 | 37067 ft | 507 kts | 134° |
| 2026-05-04 22:40 | 40.85105 | 25.43827 | 37084 ft | 507 kts | 134° |
| 2026-05-04 22:40 | 40.80031 | 25.50301 | 37060 ft | 507 kts | 135° |
| 2026-05-04 22:41 | 40.74954 | 25.56766 | 37082 ft | 507 kts | 135° |
| 2026-05-04 22:41 | 40.69875 | 25.63218 | 37064 ft | 507 kts | 135° |
| 2026-05-04 22:42 | 40.64793 | 25.69657 | 37074 ft | 506 kts | 134° |
| 2026-05-04 22:42 | 40.59715 | 25.76079 | 37076 ft | 506 kts | 134° |
| 2026-05-04 22:43 | 40.54632 | 25.82494 | 37077 ft | 506 kts | 134° |
| 2026-05-04 22:43 | 40.49784 | 25.89175 | 37079 ft | 503 kts | 124° |
| 2026-05-04 22:44 | 40.45855 | 25.96762 | 37085 ft | 502 kts | 120° |
| 2026-05-04 22:44 | 40.42108 | 26.04510 | 37080 ft | 502 kts | 120° |
| 2026-05-04 22:45 | 40.38381 | 26.12263 | 37081 ft | 502 kts | 120° |
| 2026-05-04 22:45 | 40.32778 | 26.23798 | 37082 ft | 503 kts | 120° |
| 2026-05-04 22:46 | 40.29001 | 26.31519 | 37098 ft | 504 kts | 120° |
| 2026-05-04 22:46 | 40.25202 | 26.39266 | 37102 ft | 505 kts | 120° |
| 2026-05-04 22:47 | 40.21404 | 26.46994 | 37102 ft | 505 kts | 120° |
| 2026-05-04 22:47 | 40.17599 | 26.54715 | 37101 ft | 505 kts | 120° |
| 2026-05-04 22:48 | 40.13787 | 26.62431 | 37100 ft | 504 kts | 120° |
| 2026-05-04 22:48 | 40.09975 | 26.70131 | 37098 ft | 504 kts | 120° |
| 2026-05-04 22:49 | 40.06181 | 26.77776 | 37095 ft | 504 kts | 120° |
| 2026-05-04 22:49 | 40.02357 | 26.85464 | 37093 ft | 504 kts | 120° |
| 2026-05-04 22:50 | 39.98530 | 26.93134 | 37097 ft | 505 kts | 120° |
| 2026-05-04 22:50 | 39.94692 | 27.00813 | 37094 ft | 506 kts | 120° |
| 2026-05-04 22:51 | 39.90839 | 27.08501 | 37091 ft | 507 kts | 120° |
| 2026-05-04 22:51 | 39.86979 | 27.16182 | 37089 ft | 507 kts | 120° |
| 2026-05-04 22:52 | 39.83113 | 27.23859 | 37086 ft | 507 kts | 120° |
| 2026-05-04 22:52 | 39.79237 | 27.31544 | 37085 ft | 508 kts | 120° |
| 2026-05-04 22:53 | 39.75352 | 27.39205 | 37083 ft | 508 kts | 120° |
| 2026-05-04 22:53 | 39.71458 | 27.46857 | 37084 ft | 508 kts | 120° |
| 2026-05-04 22:54 | 39.67563 | 27.54516 | 37083 ft | 509 kts | 120° |
| 2026-05-04 22:54 | 39.63654 | 27.62185 | 37087 ft | 509 kts | 120° |
| 2026-05-04 22:55 | 39.59741 | 27.69843 | 37093 ft | 509 kts | 120° |
| 2026-05-04 22:55 | 39.55844 | 27.77450 | 37097 ft | 509 kts | 120° |
| 2026-05-04 22:56 | 39.51916 | 27.85104 | 37095 ft | 510 kts | 120° |
| 2026-05-04 22:56 | 39.47984 | 27.92747 | 37095 ft | 510 kts | 120° |
| 2026-05-04 22:57 | 39.44039 | 28.00388 | 37090 ft | 510 kts | 120° |
| 2026-05-04 22:57 | 39.40090 | 28.08021 | 37098 ft | 511 kts | 120° |
| 2026-05-04 22:58 | 39.36134 | 28.15651 | 37070 ft | 511 kts | 120° |
| 2026-05-04 22:58 | 39.32171 | 28.23278 | 37064 ft | 511 kts | 120° |
| 2026-05-04 22:59 | 39.28206 | 28.30892 | 37068 ft | 511 kts | 120° |
| 2026-05-04 22:59 | 39.24231 | 28.38508 | 37077 ft | 511 kts | 120° |
| 2026-05-04 23:00 | 39.20279 | 28.46058 | 37053 ft | 511 kts | 120° |
| 2026-05-04 23:00 | 39.16299 | 28.53649 | 37071 ft | 511 kts | 120° |
| 2026-05-04 23:01 | 39.12312 | 28.61232 | 37072 ft | 511 kts | 120° |
| 2026-05-04 23:01 | 39.08998 | 28.67524 | 37078 ft | 511 kts | 120° |
| 2026-05-04 23:02 | 39.05009 | 28.75078 | 37056 ft | 510 kts | 120° |
| 2026-05-04 23:02 | 39.01017 | 28.82621 | 37058 ft | 510 kts | 120° |
| 2026-05-04 23:03 | 38.97019 | 28.90157 | 37055 ft | 510 kts | 121° |
| 2026-05-04 23:03 | 38.93018 | 28.97686 | 37067 ft | 510 kts | 121° |
| 2026-05-04 23:04 | 38.89013 | 29.05201 | 37057 ft | 510 kts | 121° |
| 2026-05-04 23:04 | 38.85005 | 29.12705 | 37057 ft | 510 kts | 121° |
| 2026-05-04 23:05 | 38.80989 | 29.20207 | 37052 ft | 510 kts | 121° |
| 2026-05-04 23:05 | 38.76967 | 29.27702 | 37063 ft | 510 kts | 121° |
| 2026-05-04 23:06 | 38.72952 | 29.35166 | 37056 ft | 512 kts | 121° |
| 2026-05-04 23:06 | 38.68907 | 29.42669 | 37060 ft | 512 kts | 122° |
| 2026-05-04 23:07 | 38.64845 | 29.50158 | 37062 ft | 513 kts | 122° |
| 2026-05-04 23:07 | 38.60657 | 29.57551 | 37061 ft | 513 kts | 124° |
| 2026-05-04 23:08 | 38.56423 | 29.64922 | 37054 ft | 514 kts | 124° |
| 2026-05-04 23:08 | 38.52198 | 29.72300 | 37058 ft | 514 kts | 123° |
| 2026-05-04 23:09 | 38.47979 | 29.79685 | 37054 ft | 514 kts | 123° |
| 2026-05-04 23:09 | 38.43763 | 29.87057 | 37052 ft | 515 kts | 124° |
| 2026-05-04 23:10 | 38.39557 | 29.94397 | 37036 ft | 516 kts | 124° |
| 2026-05-04 23:10 | 38.35314 | 30.01779 | 37049 ft | 516 kts | 124° |
| 2026-05-04 23:11 | 38.31071 | 30.09146 | 37032 ft | 516 kts | 124° |
| 2026-05-04 23:11 | 38.26812 | 30.16539 | 37032 ft | 520 kts | 124° |
| 2026-05-04 23:12 | 38.22526 | 30.23970 | 37038 ft | 521 kts | 124° |
| 2026-05-04 23:12 | 38.18225 | 30.31388 | 37026 ft | 521 kts | 125° |
| 2026-05-04 23:13 | 38.13918 | 30.38797 | 37025 ft | 521 kts | 125° |
| 2026-05-04 23:13 | 38.09609 | 30.46200 | 37021 ft | 521 kts | 125° |
| 2026-05-04 23:14 | 38.05292 | 30.53601 | 37005 ft | 522 kts | 125° |
| 2026-05-04 23:14 | 38.00994 | 30.60954 | 37009 ft | 522 kts | 125° |
| 2026-05-04 23:15 | 37.96666 | 30.68351 | 37008 ft | 522 kts | 125° |
| 2026-05-04 23:15 | 37.92343 | 30.75742 | 36996 ft | 522 kts | 125° |
| 2026-05-04 23:16 | 37.88001 | 30.83146 | 36990 ft | 525 kts | 126° |
| 2026-05-04 23:16 | 37.83634 | 30.90574 | 36987 ft | 526 kts | 126° |
| 2026-05-04 23:17 | 37.79264 | 30.97992 | 36988 ft | 526 kts | 126° |
| 2026-05-04 23:17 | 37.74883 | 31.05410 | 36984 ft | 526 kts | 126° |
| 2026-05-04 23:18 | 37.70498 | 31.12819 | 36976 ft | 526 kts | 126° |
| 2026-05-04 23:18 | 37.66106 | 31.20224 | 36973 ft | 526 kts | 126° |
| 2026-05-04 23:19 | 37.61737 | 31.27573 | 36973 ft | 526 kts | 126° |
| 2026-05-04 23:19 | 37.57351 | 31.34935 | 36969 ft | 524 kts | 126° |
| 2026-05-04 23:20 | 37.52970 | 31.42274 | 36968 ft | 524 kts | 126° |
| 2026-05-04 23:20 | 37.48582 | 31.49610 | 36969 ft | 524 kts | 127° |
| 2026-05-04 23:21 | 37.44187 | 31.56937 | 36971 ft | 524 kts | 127° |
| 2026-05-04 23:21 | 37.39794 | 31.64244 | 36972 ft | 523 kts | 127° |
| 2026-05-04 23:22 | 37.35396 | 31.71546 | 36975 ft | 523 kts | 127° |
| 2026-05-04 23:22 | 37.30993 | 31.78828 | 36974 ft | 523 kts | 127° |
| 2026-05-04 23:23 | 37.26584 | 31.86098 | 36972 ft | 523 kts | 128° |
| 2026-05-04 23:23 | 37.22198 | 31.93315 | 36972 ft | 523 kts | 128° |
| 2026-05-04 23:24 | 37.17780 | 32.00572 | 36975 ft | 523 kts | 128° |
| 2026-05-04 23:24 | 37.13361 | 32.07817 | 36980 ft | 523 kts | 128° |
| 2026-05-04 23:25 | 37.08925 | 32.15074 | 36970 ft | 526 kts | 128° |
| 2026-05-04 23:25 | 37.04466 | 32.22349 | 36971 ft | 527 kts | 128° |
| 2026-05-04 23:26 | 36.99999 | 32.29621 | 36972 ft | 527 kts | 128° |
| 2026-05-04 23:26 | 36.95529 | 32.36886 | 36969 ft | 527 kts | 128° |
| 2026-05-04 23:27 | 36.91058 | 32.44135 | 36972 ft | 527 kts | 129° |
| 2026-05-04 23:27 | 36.86586 | 32.51379 | 36968 ft | 526 kts | 129° |
| 2026-05-04 23:28 | 36.82109 | 32.58614 | 36974 ft | 527 kts | 129° |
| 2026-05-04 23:28 | 36.77626 | 32.65842 | 36964 ft | 526 kts | 129° |
| 2026-05-04 23:29 | 36.73142 | 32.73056 | 36964 ft | 526 kts | 129° |
| 2026-05-04 23:29 | 36.68660 | 32.80254 | 36961 ft | 525 kts | 129° |
| 2026-05-04 23:30 | 36.64210 | 32.87385 | 36961 ft | 525 kts | 129° |
| 2026-05-04 23:30 | 36.59731 | 32.94548 | 36939 ft | 523 kts | 130° |
| 2026-05-04 23:31 | 36.55268 | 33.01669 | 36949 ft | 521 kts | 130° |
| 2026-05-04 23:31 | 36.50802 | 33.08779 | 36934 ft | 521 kts | 130° |
| 2026-05-04 23:32 | 36.46338 | 33.15872 | 36916 ft | 521 kts | 130° |
| 2026-05-04 23:32 | 36.41868 | 33.22961 | 36923 ft | 521 kts | 130° |
| 2026-05-04 23:33 | 36.37392 | 33.30046 | 36921 ft | 522 kts | 130° |
| 2026-05-04 23:33 | 36.32905 | 33.37127 | 36916 ft | 522 kts | 130° |
| 2026-05-04 23:34 | 36.28408 | 33.44192 | 36904 ft | 522 kts | 130° |
| 2026-05-04 23:34 | 36.23933 | 33.51210 | 36901 ft | 523 kts | 130° |
| 2026-05-04 23:35 | 36.19419 | 33.58279 | 36899 ft | 523 kts | 131° |
| 2026-05-04 23:35 | 36.14901 | 33.65342 | 36899 ft | 523 kts | 131° |
| 2026-05-04 23:36 | 36.10378 | 33.72398 | 36892 ft | 523 kts | 131° |
| 2026-05-04 23:36 | 36.05853 | 33.79443 | 36893 ft | 523 kts | 131° |
| 2026-05-04 23:37 | 36.01323 | 33.86480 | 36891 ft | 523 kts | 131° |
| 2026-05-04 23:37 | 35.96790 | 33.93508 | 36891 ft | 523 kts | 131° |
| 2026-05-04 23:38 | 35.92314 | 34.00585 | 36885 ft | 524 kts | 127° |
| 2026-05-04 23:38 | 35.88696 | 34.08409 | 36893 ft | 526 kts | 120° |
| 2026-05-04 23:39 | 35.85371 | 34.16373 | 36891 ft | 526 kts | 119° |
| 2026-05-04 23:39 | 35.82058 | 34.24423 | 36891 ft | 527 kts | 120° |
| 2026-05-04 23:40 | 35.78722 | 34.32465 | 36891 ft | 527 kts | 120° |
| 2026-05-04 23:40 | 35.75364 | 34.40501 | 36892 ft | 527 kts | 120° |
| 2026-05-04 23:41 | 35.71996 | 34.48532 | 36877 ft | 527 kts | 120° |
| 2026-05-04 23:41 | 35.68629 | 34.56539 | 36894 ft | 527 kts | 120° |
| 2026-05-04 23:42 | 35.65257 | 34.64541 | 36892 ft | 527 kts | 120° |
| 2026-05-04 23:42 | 35.61876 | 34.72544 | 36894 ft | 527 kts | 120° |
| 2026-05-04 23:43 | 35.58519 | 34.80478 | 36884 ft | 526 kts | 121° |
| 2026-05-04 23:43 | 35.55134 | 34.88451 | 36903 ft | 526 kts | 121° |
| 2026-05-04 23:44 | 35.51743 | 34.96422 | 36885 ft | 526 kts | 121° |
| 2026-05-04 23:44 | 35.48346 | 35.04387 | 36889 ft | 527 kts | 121° |
| 2026-05-04 23:45 | 35.44944 | 35.12344 | 36886 ft | 527 kts | 122° |
| 2026-05-04 23:45 | 35.41530 | 35.20314 | 36889 ft | 527 kts | 122° |
| 2026-05-04 23:46 | 35.38135 | 35.28219 | 36889 ft | 527 kts | 122° |
| 2026-05-04 23:46 | 35.34709 | 35.36174 | 36895 ft | 528 kts | 122° |
| 2026-05-04 23:47 | 35.31279 | 35.44125 | 36895 ft | 528 kts | 122° |
| 2026-05-04 23:47 | 35.27841 | 35.52076 | 36882 ft | 528 kts | 123° |
| 2026-05-04 23:48 | 35.24393 | 35.60027 | 36905 ft | 529 kts | 123° |
| 2026-05-04 23:48 | 35.21303 | 35.68161 | 36909 ft | 536 kts | 111° |
| 2026-05-04 23:49 | 35.20271 | 35.77233 | 36888 ft | 546 kts | 89° |
| 2026-05-04 23:49 | 35.21089 | 35.86496 | 36920 ft | 548 kts | 90° |
| 2026-05-04 23:50 | 35.20984 | 35.91139 | 36919 ft | 543 kts | 101° |
| 2026-05-04 23:50 | 35.20231 | 35.95620 | 36923 ft | 535 kts | 112° |
| 2026-05-04 23:50 | 35.18835 | 35.99793 | 36922 ft | 526 kts | 124° |
| 2026-05-04 23:50 | 35.16874 | 36.03503 | 36923 ft | 516 kts | 135° |
| 2026-05-04 23:51 | 35.12995 | 36.09004 | 36925 ft | 513 kts | 139° |
| 2026-05-04 23:51 | 35.08071 | 36.15299 | 36924 ft | 512 kts | 140° |
| 2026-05-04 23:52 | 35.03132 | 36.21575 | 36930 ft | 512 kts | 140° |
| 2026-05-04 23:52 | 34.98238 | 36.27889 | 36933 ft | 513 kts | 140° |
| 2026-05-04 23:53 | 34.93347 | 36.34237 | 36933 ft | 513 kts | 140° |
| 2026-05-04 23:53 | 34.88459 | 36.40580 | 36924 ft | 514 kts | 140° |
| 2026-05-04 23:54 | 34.83550 | 36.46933 | 36939 ft | 515 kts | 141° |
| 2026-05-04 23:54 | 34.78674 | 36.53230 | 36929 ft | 515 kts | 141° |
| 2026-05-04 23:55 | 34.73754 | 36.59571 | 36943 ft | 515 kts | 141° |
| 2026-05-04 23:56 | 34.66370 | 36.69063 | 36939 ft | 515 kts | 141° |
| 2026-05-04 23:56 | 34.61442 | 36.75383 | 36903 ft | 515 kts | 141° |
| 2026-05-04 23:57 | 34.56528 | 36.81680 | 36944 ft | 513 kts | 141° |
| 2026-05-04 23:57 | 34.51619 | 36.87955 | 36943 ft | 512 kts | 141° |
| 2026-05-04 23:58 | 34.46710 | 36.94216 | 36941 ft | 512 kts | 141° |
| 2026-05-04 23:58 | 34.41797 | 37.00472 | 36924 ft | 512 kts | 141° |
| 2026-05-04 23:59 | 34.36895 | 37.06705 | 36947 ft | 510 kts | 141° |
| 2026-05-04 23:59 | 34.32005 | 37.12910 | 36947 ft | 509 kts | 142° |
| 2026-05-05 00:00 | 34.27107 | 37.19111 | 36952 ft | 509 kts | 142° |
| 2026-05-05 00:00 | 34.22126 | 37.25063 | 36955 ft | 500 kts | 150° |
| 2026-05-05 00:00 | 34.19314 | 37.27450 | 36960 ft | 489 kts | 159° |
| 2026-05-05 00:01 | 34.16349 | 37.29434 | 36926 ft | 485 kts | 161° |
| 2026-05-05 00:01 | 34.10315 | 37.33106 | 36958 ft | 485 kts | 163° |
| 2026-05-05 00:02 | 34.04241 | 37.36669 | 36966 ft | 485 kts | 163° |
| 2026-05-05 00:02 | 33.98164 | 37.40251 | 36965 ft | 486 kts | 163° |
| 2026-05-05 00:03 | 33.92103 | 37.43848 | 36974 ft | 486 kts | 163° |
| 2026-05-05 00:03 | 33.86042 | 37.47449 | 36981 ft | 485 kts | 163° |
| 2026-05-05 00:04 | 33.80025 | 37.51019 | 36975 ft | 485 kts | 163° |
| 2026-05-05 00:04 | 33.73962 | 37.54608 | 36978 ft | 485 kts | 163° |
| 2026-05-05 00:05 | 33.67903 | 37.58188 | 36983 ft | 485 kts | 163° |
| 2026-05-05 00:05 | 33.61844 | 37.61764 | 36979 ft | 485 kts | 163° |
| 2026-05-05 00:06 | 33.55783 | 37.65336 | 36984 ft | 485 kts | 163° |
| 2026-05-05 00:06 | 33.49718 | 37.68864 | 36987 ft | 484 kts | 164° |
| 2026-05-05 00:07 | 33.43639 | 37.72339 | 36969 ft | 484 kts | 164° |
| 2026-05-05 00:07 | 33.37563 | 37.75795 | 36961 ft | 484 kts | 164° |
| 2026-05-05 00:08 | 33.31481 | 37.79251 | 36997 ft | 484 kts | 164° |
| 2026-05-05 00:08 | 33.25395 | 37.82710 | 36998 ft | 484 kts | 164° |
| 2026-05-05 00:09 | 33.19349 | 37.86143 | 36998 ft | 484 kts | 164° |
| 2026-05-05 00:09 | 33.13265 | 37.89592 | 36998 ft | 484 kts | 164° |
| 2026-05-05 00:10 | 33.07181 | 37.93036 | 37003 ft | 485 kts | 164° |
| 2026-05-05 00:10 | 33.01082 | 37.96482 | 36987 ft | 484 kts | 165° |
| 2026-05-05 00:11 | 32.94993 | 37.99920 | 37007 ft | 484 kts | 165° |
| 2026-05-05 00:11 | 32.88931 | 38.03442 | 37012 ft | 485 kts | 163° |
| 2026-05-05 00:12 | 32.82895 | 38.07060 | 37000 ft | 486 kts | 163° |
| 2026-05-05 00:12 | 32.76860 | 38.10678 | 37015 ft | 485 kts | 163° |
| 2026-05-05 00:13 | 32.70857 | 38.14248 | 37015 ft | 485 kts | 163° |
| 2026-05-05 00:13 | 32.64807 | 38.17833 | 37014 ft | 485 kts | 163° |
| 2026-05-05 00:14 | 32.58771 | 38.21403 | 37020 ft | 485 kts | 164° |
| 2026-05-05 00:14 | 32.52738 | 38.24968 | 37026 ft | 484 kts | 164° |
| 2026-05-05 00:15 | 32.46712 | 38.28522 | 37029 ft | 484 kts | 164° |
| 2026-05-05 00:15 | 32.40672 | 38.32079 | 37029 ft | 484 kts | 164° |
| 2026-05-05 00:16 | 32.34642 | 38.35625 | 37031 ft | 484 kts | 164° |
| 2026-05-05 00:16 | 32.28646 | 38.39146 | 37020 ft | 484 kts | 164° |
| 2026-05-05 00:17 | 32.22625 | 38.42678 | 37038 ft | 483 kts | 164° |
| 2026-05-05 00:17 | 32.16602 | 38.46204 | 37036 ft | 483 kts | 165° |
| 2026-05-05 00:18 | 32.10581 | 38.49723 | 37039 ft | 483 kts | 165° |
| 2026-05-05 00:18 | 32.04555 | 38.53241 | 37040 ft | 483 kts | 165° |
| 2026-05-05 00:19 | 31.98531 | 38.56752 | 37037 ft | 483 kts | 165° |
| 2026-05-05 00:19 | 31.92505 | 38.60259 | 37033 ft | 483 kts | 165° |
| 2026-05-05 00:20 | 31.86473 | 38.63763 | 37028 ft | 483 kts | 165° |
| 2026-05-05 00:20 | 31.80454 | 38.67262 | 37011 ft | 483 kts | 165° |
| 2026-05-05 00:21 | 31.74475 | 38.70735 | 37021 ft | 482 kts | 165° |
| 2026-05-05 00:21 | 31.68504 | 38.74398 | 37023 ft | 489 kts | 161° |
| 2026-05-05 00:22 | 31.62654 | 38.78516 | 37036 ft | 491 kts | 160° |
| 2026-05-05 00:22 | 31.56831 | 38.82710 | 37043 ft | 491 kts | 159° |
| 2026-05-05 00:23 | 31.51006 | 38.86907 | 37044 ft | 491 kts | 160° |
| 2026-05-05 00:23 | 31.45181 | 38.91085 | 37031 ft | 491 kts | 160° |
| 2026-05-05 00:24 | 31.39349 | 38.95254 | 37041 ft | 491 kts | 160° |
| 2026-05-05 00:24 | 31.33513 | 38.99419 | 37047 ft | 491 kts | 160° |
| 2026-05-05 00:25 | 31.27676 | 39.03579 | 37045 ft | 491 kts | 160° |
| 2026-05-05 00:25 | 31.21841 | 39.07731 | 37048 ft | 491 kts | 160° |
| 2026-05-05 00:26 | 31.16002 | 39.11881 | 37036 ft | 491 kts | 160° |
| 2026-05-05 00:26 | 31.10155 | 39.16029 | 37051 ft | 492 kts | 160° |
| 2026-05-05 00:27 | 31.04345 | 39.20147 | 37050 ft | 492 kts | 160° |
| 2026-05-05 00:27 | 30.98492 | 39.24291 | 37052 ft | 492 kts | 160° |
| 2026-05-05 00:28 | 30.92638 | 39.28427 | 37053 ft | 492 kts | 160° |
| 2026-05-05 00:28 | 30.86779 | 39.32561 | 37045 ft | 492 kts | 160° |
| 2026-05-05 00:29 | 30.80918 | 39.36689 | 37050 ft | 493 kts | 160° |
| 2026-05-05 00:29 | 30.75049 | 39.40818 | 37061 ft | 493 kts | 160° |
| 2026-05-05 00:30 | 30.69186 | 39.44938 | 37060 ft | 493 kts | 160° |
| 2026-05-05 00:30 | 30.63358 | 39.49027 | 37064 ft | 493 kts | 160° |
| 2026-05-05 00:31 | 30.57487 | 39.53140 | 37058 ft | 493 kts | 160° |
| 2026-05-05 00:31 | 30.51621 | 39.57244 | 37067 ft | 493 kts | 160° |
| 2026-05-05 00:32 | 30.45750 | 39.61347 | 37066 ft | 492 kts | 160° |
| 2026-05-05 00:32 | 30.42894 | 39.63600 | 37067 ft | 503 kts | 153° |
| 2026-05-05 00:32 | 30.40273 | 39.66359 | 37070 ft | 518 kts | 143° |
| 2026-05-05 00:33 | 30.35682 | 39.72938 | 37069 ft | 528 kts | 137° |
| 2026-05-05 00:33 | 30.31317 | 39.79802 | 37066 ft | 530 kts | 136° |
| 2026-05-05 00:34 | 30.26957 | 39.86690 | 37072 ft | 530 kts | 136° |
| 2026-05-05 00:34 | 30.22560 | 39.93548 | 37062 ft | 530 kts | 137° |
| 2026-05-05 00:35 | 30.18151 | 40.00369 | 37063 ft | 530 kts | 137° |
| 2026-05-05 00:35 | 30.13761 | 40.07143 | 37058 ft | 530 kts | 137° |
| 2026-05-05 00:36 | 30.09341 | 40.13954 | 37061 ft | 529 kts | 137° |
| 2026-05-05 00:36 | 30.04920 | 40.20755 | 37064 ft | 529 kts | 137° |
| 2026-05-05 00:37 | 30.00497 | 40.27551 | 37053 ft | 529 kts | 137° |
| 2026-05-05 00:37 | 29.96072 | 40.34343 | 37056 ft | 529 kts | 137° |
| 2026-05-05 00:38 | 29.91644 | 40.41128 | 37070 ft | 529 kts | 137° |
| 2026-05-05 00:38 | 29.87213 | 40.47904 | 37022 ft | 529 kts | 137° |
| 2026-05-05 00:39 | 29.83529 | 40.53531 | 37055 ft | 529 kts | 137° |
| 2026-05-05 00:39 | 29.79088 | 40.60303 | 37052 ft | 529 kts | 137° |
| 2026-05-05 00:40 | 29.74877 | 40.67341 | 37046 ft | 537 kts | 133° |
| 2026-05-05 00:40 | 29.70906 | 40.74646 | 37034 ft | 539 kts | 131° |
| 2026-05-05 00:41 | 29.66971 | 40.81987 | 37041 ft | 539 kts | 131° |
| 2026-05-05 00:41 | 29.63030 | 40.89318 | 37042 ft | 539 kts | 131° |
| 2026-05-05 00:42 | 29.59102 | 40.96590 | 37037 ft | 539 kts | 132° |
| 2026-05-05 00:42 | 29.55139 | 41.03903 | 37031 ft | 538 kts | 132° |
| 2026-05-05 00:43 | 29.51178 | 41.11200 | 37028 ft | 538 kts | 132° |
| 2026-05-05 00:43 | 29.47210 | 41.18496 | 37023 ft | 538 kts | 132° |
| 2026-05-05 00:44 | 29.43242 | 41.25781 | 37022 ft | 537 kts | 132° |
| 2026-05-05 00:44 | 29.39300 | 41.33004 | 37018 ft | 537 kts | 132° |
| 2026-05-05 00:45 | 29.35334 | 41.40262 | 37009 ft | 537 kts | 132° |
| 2026-05-05 00:45 | 29.31370 | 41.47511 | 37008 ft | 536 kts | 132° |
| 2026-05-05 00:46 | 29.27400 | 41.54746 | 37004 ft | 536 kts | 132° |
| 2026-05-05 00:46 | 29.23430 | 41.61970 | 37003 ft | 536 kts | 132° |
| 2026-05-05 00:47 | 29.19458 | 41.69190 | 37000 ft | 536 kts | 132° |
| 2026-05-05 00:47 | 29.15483 | 41.76401 | 36980 ft | 535 kts | 132° |
| 2026-05-05 00:48 | 29.11528 | 41.83565 | 36984 ft | 536 kts | 132° |
| 2026-05-05 00:48 | 29.07534 | 41.90784 | 36982 ft | 537 kts | 132° |
| 2026-05-05 00:49 | 29.03544 | 41.97995 | 36977 ft | 537 kts | 132° |
| 2026-05-05 00:49 | 28.99530 | 42.05215 | 36969 ft | 542 kts | 132° |
| 2026-05-05 00:50 | 28.95469 | 42.12501 | 36962 ft | 544 kts | 132° |
| 2026-05-05 00:50 | 28.91417 | 42.19780 | 36931 ft | 543 kts | 132° |
| 2026-05-05 00:51 | 28.87355 | 42.27060 | 36955 ft | 544 kts | 132° |
| 2026-05-05 00:51 | 28.83290 | 42.34330 | 36946 ft | 543 kts | 132° |
| 2026-05-05 00:52 | 28.79220 | 42.41594 | 36911 ft | 543 kts | 132° |
| 2026-05-05 00:52 | 28.75179 | 42.48798 | 36931 ft | 542 kts | 132° |
| 2026-05-05 00:53 | 28.71111 | 42.56036 | 36935 ft | 542 kts | 132° |
| 2026-05-05 00:53 | 28.67035 | 42.63272 | 36913 ft | 542 kts | 132° |
| 2026-05-05 00:54 | 28.62607 | 42.70088 | 36908 ft | 528 kts | 141° |
| 2026-05-05 00:54 | 28.57690 | 42.76290 | 36909 ft | 526 kts | 143° |
| 2026-05-05 00:55 | 28.52707 | 42.82370 | 36899 ft | 525 kts | 143° |
| 2026-05-05 00:55 | 28.47749 | 42.88406 | 36887 ft | 525 kts | 143° |
| 2026-05-05 00:56 | 28.42771 | 42.94484 | 36893 ft | 526 kts | 143° |
| 2026-05-05 00:56 | 28.37791 | 43.00569 | 36894 ft | 525 kts | 143° |
| 2026-05-05 00:57 | 28.32815 | 43.06642 | 36886 ft | 525 kts | 143° |
| 2026-05-05 00:57 | 28.27840 | 43.12706 | 36883 ft | 525 kts | 143° |
| 2026-05-05 00:58 | 28.22861 | 43.18763 | 36885 ft | 525 kts | 143° |
| 2026-05-05 00:58 | 28.17882 | 43.24811 | 36872 ft | 524 kts | 143° |
| 2026-05-05 00:59 | 28.12905 | 43.30850 | 36876 ft | 523 kts | 143° |
| 2026-05-05 00:59 | 28.07966 | 43.36831 | 36875 ft | 523 kts | 143° |
| 2026-05-05 01:00 | 28.02961 | 43.42885 | 36862 ft | 523 kts | 143° |
| 2026-05-05 01:00 | 27.98018 | 43.48853 | 36872 ft | 523 kts | 143° |
| 2026-05-05 01:01 | 27.93040 | 43.54857 | 36871 ft | 523 kts | 143° |
| 2026-05-05 01:01 | 27.88049 | 43.60865 | 36867 ft | 523 kts | 143° |
| 2026-05-05 01:02 | 27.83060 | 43.66850 | 36868 ft | 522 kts | 144° |
| 2026-05-05 01:02 | 27.77893 | 43.72552 | 36862 ft | 518 kts | 147° |
| 2026-05-05 01:03 | 27.72644 | 43.78127 | 36866 ft | 518 kts | 147° |
| 2026-05-05 01:03 | 27.67414 | 43.83732 | 36843 ft | 519 kts | 146° |
| 2026-05-05 01:04 | 27.62194 | 43.89380 | 36867 ft | 520 kts | 146° |
| 2026-05-05 01:04 | 27.54376 | 43.97856 | 36872 ft | 520 kts | 146° |
| 2026-05-05 01:05 | 27.49189 | 44.03468 | 36853 ft | 520 kts | 146° |
| 2026-05-05 01:05 | 27.43957 | 44.09116 | 36872 ft | 521 kts | 146° |
| 2026-05-05 01:06 | 27.38729 | 44.14753 | 36871 ft | 521 kts | 146° |
| 2026-05-05 01:06 | 27.33485 | 44.20400 | 36871 ft | 521 kts | 146° |
| 2026-05-05 01:07 | 27.28253 | 44.26027 | 36865 ft | 521 kts | 147° |
| 2026-05-05 01:07 | 27.23010 | 44.31657 | 36864 ft | 521 kts | 147° |
| 2026-05-05 01:08 | 27.17770 | 44.37277 | 36867 ft | 521 kts | 147° |
| 2026-05-05 01:08 | 27.12531 | 44.42894 | 36847 ft | 521 kts | 146° |
| 2026-05-05 01:09 | 27.07292 | 44.48510 | 36872 ft | 520 kts | 146° |
| 2026-05-05 01:09 | 27.02091 | 44.54078 | 36872 ft | 520 kts | 147° |
| 2026-05-05 01:10 | 26.96852 | 44.59683 | 36872 ft | 520 kts | 147° |
| 2026-05-05 01:10 | 26.91610 | 44.65269 | 36871 ft | 520 kts | 146° |
| 2026-05-05 01:11 | 26.86364 | 44.70846 | 36878 ft | 519 kts | 146° |
| 2026-05-05 01:11 | 26.81124 | 44.76412 | 36876 ft | 519 kts | 146° |
| 2026-05-05 01:12 | 26.75885 | 44.81976 | 36880 ft | 519 kts | 146° |
| 2026-05-05 01:12 | 26.70646 | 44.87527 | 36874 ft | 519 kts | 147° |
| 2026-05-05 01:13 | 26.65427 | 44.93035 | 36880 ft | 519 kts | 147° |
| 2026-05-05 01:13 | 26.60179 | 44.98568 | 36879 ft | 519 kts | 147° |
| 2026-05-05 01:14 | 26.54936 | 45.04095 | 36863 ft | 518 kts | 146° |
| 2026-05-05 01:14 | 26.49696 | 45.09614 | 36878 ft | 517 kts | 146° |
| 2026-05-05 01:15 | 26.44461 | 45.15120 | 36881 ft | 517 kts | 146° |
| 2026-05-05 01:15 | 26.39225 | 45.20618 | 36872 ft | 517 kts | 146° |
| 2026-05-05 01:16 | 26.33991 | 45.26108 | 36878 ft | 516 kts | 146° |
| 2026-05-05 01:16 | 26.28794 | 45.31557 | 36876 ft | 516 kts | 146° |
| 2026-05-05 01:17 | 26.23562 | 45.37054 | 36869 ft | 516 kts | 146° |
| 2026-05-05 01:17 | 26.18331 | 45.42542 | 36877 ft | 516 kts | 146° |
| 2026-05-05 01:18 | 26.13106 | 45.48017 | 36870 ft | 516 kts | 146° |
| 2026-05-05 01:18 | 26.07881 | 45.53489 | 36875 ft | 516 kts | 146° |
| 2026-05-05 01:19 | 26.02648 | 45.58962 | 36868 ft | 516 kts | 146° |
| 2026-05-05 01:19 | 25.97411 | 45.64432 | 36870 ft | 516 kts | 146° |
| 2026-05-05 01:20 | 25.92176 | 45.69893 | 36866 ft | 516 kts | 145° |
| 2026-05-05 01:20 | 25.86931 | 45.75355 | 36869 ft | 517 kts | 145° |
| 2026-05-05 01:21 | 25.81691 | 45.80814 | 36870 ft | 516 kts | 145° |
| 2026-05-05 01:21 | 25.76479 | 45.86225 | 36873 ft | 516 kts | 145° |
| 2026-05-05 01:22 | 25.71236 | 45.91660 | 36872 ft | 516 kts | 145° |
| 2026-05-05 01:22 | 25.65989 | 45.97094 | 36877 ft | 516 kts | 145° |
| 2026-05-05 01:23 | 25.60740 | 46.02528 | 36866 ft | 516 kts | 145° |
| 2026-05-05 01:23 | 25.55492 | 46.07954 | 36870 ft | 516 kts | 145° |
| 2026-05-05 01:24 | 25.50240 | 46.13371 | 36877 ft | 516 kts | 145° |
| 2026-05-05 01:24 | 25.44981 | 46.18788 | 36868 ft | 516 kts | 145° |
| 2026-05-05 01:25 | 25.39720 | 46.24203 | 36876 ft | 517 kts | 145° |
| 2026-05-05 01:25 | 25.34477 | 46.29594 | 36884 ft | 517 kts | 145° |
| 2026-05-05 01:26 | 25.29209 | 46.35005 | 36888 ft | 517 kts | 144° |
| 2026-05-05 01:26 | 25.23926 | 46.40421 | 36892 ft | 518 kts | 144° |
| 2026-05-05 01:27 | 25.18636 | 46.45841 | 36900 ft | 518 kts | 144° |
| 2026-05-05 01:27 | 25.13349 | 46.51251 | 36889 ft | 518 kts | 144° |
| 2026-05-05 01:28 | 25.08086 | 46.56628 | 36908 ft | 519 kts | 144° |
| 2026-05-05 01:28 | 25.03369 | 46.62771 | 36912 ft | 535 kts | 127° |
| 2026-05-05 01:29 | 25.01704 | 46.66475 | 36910 ft | 544 kts | 115° |
| 2026-05-05 01:29 | 25.00673 | 46.70517 | 36911 ft | 552 kts | 103° |
| 2026-05-05 01:29 | 25.00358 | 46.74759 | 36911 ft | 558 kts | 91° |
| 2026-05-05 01:29 | 25.00796 | 46.79019 | 36911 ft | 562 kts | 78° |
| 2026-05-05 01:30 | 25.03135 | 46.85659 | 36922 ft | 559 kts | 57° |
| 2026-05-05 01:30 | 25.05404 | 46.89128 | 36906 ft | 556 kts | 45° |
| 2026-05-05 01:30 | 25.07891 | 46.92408 | 36908 ft | 560 kts | 52° |
| 2026-05-05 01:31 | 25.11761 | 46.99901 | 36898 ft | 564 kts | 63° |
| 2026-05-05 01:31 | 25.15124 | 47.07726 | 36894 ft | 564 kts | 65° |
| 2026-05-05 01:32 | 25.18359 | 47.15611 | 36890 ft | 564 kts | 65° |
| 2026-05-05 01:32 | 25.21592 | 47.23510 | 36886 ft | 564 kts | 65° |
| 2026-05-05 01:33 | 25.24838 | 47.31400 | 36878 ft | 564 kts | 65° |
| 2026-05-05 01:33 | 25.28095 | 47.39303 | 36883 ft | 564 kts | 64° |
| 2026-05-05 01:34 | 25.31321 | 47.47145 | 36873 ft | 564 kts | 65° |
| 2026-05-05 01:34 | 25.34563 | 47.55041 | 36872 ft | 564 kts | 65° |
| 2026-05-05 01:35 | 25.37799 | 47.62937 | 36881 ft | 564 kts | 65° |
| 2026-05-05 01:35 | 25.41036 | 47.70853 | 36860 ft | 565 kts | 65° |
| 2026-05-05 01:36 | 25.44268 | 47.78785 | 36873 ft | 565 kts | 65° |
| 2026-05-05 01:36 | 25.47497 | 47.86720 | 36859 ft | 566 kts | 65° |
| 2026-05-05 01:37 | 25.50726 | 47.94668 | 36849 ft | 566 kts | 65° |
| 2026-05-05 01:37 | 25.53936 | 48.02571 | 36842 ft | 566 kts | 64° |
| 2026-05-05 01:38 | 25.57165 | 48.10541 | 36836 ft | 567 kts | 65° |
| 2026-05-05 01:38 | 25.60391 | 48.18523 | 36832 ft | 567 kts | 65° |
| 2026-05-05 01:39 | 25.63611 | 48.26502 | 36824 ft | 568 kts | 65° |
| 2026-05-05 01:39 | 25.66762 | 48.34535 | 36815 ft | 569 kts | 70° |
| 2026-05-05 01:40 | 25.67805 | 48.38754 | 36821 ft | 568 kts | 81° |
| 2026-05-05 01:40 | 25.68171 | 48.43094 | 36815 ft | 564 kts | 93° |
| 2026-05-05 01:40 | 25.67864 | 48.51787 | 36815 ft | 564 kts | 97° |
| 2026-05-05 01:41 | 25.67262 | 48.60461 | 36808 ft | 564 kts | 97° |
| 2026-05-05 01:41 | 25.66642 | 48.69140 | 36800 ft | 565 kts | 97° |
| 2026-05-05 01:42 | 25.66060 | 48.77770 | 36805 ft | 564 kts | 97° |
| 2026-05-05 01:42 | 25.65491 | 48.86443 | 36802 ft | 564 kts | 97° |
| 2026-05-05 01:43 | 25.64920 | 48.95118 | 36792 ft | 564 kts | 97° |
| 2026-05-05 01:43 | 25.64342 | 49.03791 | 36793 ft | 564 kts | 97° |
| 2026-05-05 01:44 | 25.63758 | 49.12465 | 36791 ft | 565 kts | 97° |
| 2026-05-05 01:44 | 25.63166 | 49.21159 | 36782 ft | 565 kts | 97° |
| 2026-05-05 01:45 | 25.62570 | 49.29847 | 36777 ft | 564 kts | 97° |
| 2026-05-05 01:45 | 25.61977 | 49.38492 | 36726 ft | 562 kts | 97° |
| 2026-05-05 01:46 | 25.61677 | 49.42793 | 36480 ft | 558 kts | 97° |
| 2026-05-05 01:46 | 25.61375 | 49.47083 | 36233 ft | 558 kts | 97° |
| 2026-05-05 01:46 | 25.61073 | 49.51368 | 35997 ft | 558 kts | 97° |
| 2026-05-05 01:46 | 25.60773 | 49.55593 | 35738 ft | 558 kts | 97° |
| 2026-05-05 01:47 | 25.60467 | 49.59884 | 35473 ft | 557 kts | 97° |
| 2026-05-05 01:47 | 25.60164 | 49.64145 | 34950 ft | 553 kts | 97° |
| 2026-05-05 01:47 | 25.59861 | 49.68387 | 34285 ft | 553 kts | 97° |
| 2026-05-05 01:47 | 25.59555 | 49.72643 | 33531 ft | 555 kts | 97° |
| 2026-05-05 01:48 | 25.59247 | 49.76908 | 32736 ft | 555 kts | 97° |
| 2026-05-05 01:48 | 25.58939 | 49.81165 | 31982 ft | 555 kts | 96° |
| 2026-05-05 01:48 | 25.58629 | 49.85429 | 31208 ft | 555 kts | 96° |
| 2026-05-05 01:48 | 25.58319 | 49.89680 | 30513 ft | 553 kts | 96° |
| 2026-05-05 01:49 | 25.58010 | 49.93907 | 29994 ft | 548 kts | 96° |
| 2026-05-05 01:49 | 25.57703 | 49.98095 | 29399 ft | 543 kts | 96° |
| 2026-05-05 01:49 | 25.57398 | 50.02241 | 28853 ft | 537 kts | 96° |
| 2026-05-05 01:49 | 25.57096 | 50.06321 | 28320 ft | 531 kts | 96° |
| 2026-05-05 01:50 | 25.56845 | 50.09695 | 27880 ft | 526 kts | 96° |
| 2026-05-05 01:50 | 25.56550 | 50.13658 | 27374 ft | 520 kts | 96° |
| 2026-05-05 01:50 | 25.56091 | 50.17589 | 26872 ft | 511 kts | 105° |
| 2026-05-05 01:50 | 25.55134 | 50.21341 | 26384 ft | 503 kts | 110° |
| 2026-05-05 01:51 | 25.54067 | 50.24998 | 25895 ft | 497 kts | 110° |
| 2026-05-05 01:51 | 25.52986 | 50.28610 | 25407 ft | 491 kts | 110° |
| 2026-05-05 01:51 | 25.51907 | 50.32191 | 24927 ft | 486 kts | 110° |
| 2026-05-05 01:51 | 25.50836 | 50.35729 | 24442 ft | 481 kts | 110° |
| 2026-05-05 01:52 | 25.49778 | 50.39215 | 23974 ft | 475 kts | 110° |
| 2026-05-05 01:52 | 25.48732 | 50.42656 | 23501 ft | 470 kts | 110° |
| 2026-05-05 01:52 | 25.47694 | 50.46066 | 22987 ft | 464 kts | 110° |
| 2026-05-05 01:52 | 25.46670 | 50.49429 | 22504 ft | 458 kts | 110° |
| 2026-05-05 01:53 | 25.45659 | 50.52744 | 22042 ft | 451 kts | 110° |
| 2026-05-05 01:53 | 25.44660 | 50.56016 | 21586 ft | 445 kts | 109° |
| 2026-05-05 01:53 | 25.43674 | 50.59244 | 21127 ft | 440 kts | 109° |
| 2026-05-05 01:53 | 25.42693 | 50.62451 | 20813 ft | 443 kts | 109° |
| 2026-05-05 01:54 | 25.41630 | 50.65664 | 20182 ft | 446 kts | 112° |
| 2026-05-05 01:54 | 25.40494 | 50.68804 | 19566 ft | 444 kts | 112° |
| 2026-05-05 01:54 | 25.39350 | 50.71960 | 19001 ft | 440 kts | 112° |
| 2026-05-05 01:54 | 25.38225 | 50.75087 | 18455 ft | 435 kts | 112° |
| 2026-05-05 01:55 | 25.37118 | 50.78184 | 17892 ft | 431 kts | 112° |
| 2026-05-05 01:55 | 25.36027 | 50.81244 | 17326 ft | 426 kts | 112° |
| 2026-05-05 01:55 | 25.34947 | 50.84280 | 16769 ft | 422 kts | 111° |
| 2026-05-05 01:55 | 25.33873 | 50.87297 | 16250 ft | 421 kts | 111° |
| 2026-05-05 01:56 | 25.32805 | 50.90300 | 15722 ft | 419 kts | 111° |
| 2026-05-05 01:56 | 25.31739 | 50.93294 | 15207 ft | 418 kts | 111° |
| 2026-05-05 01:56 | 25.30678 | 50.96273 | 14683 ft | 416 kts | 110° |
| 2026-05-05 01:56 | 25.29623 | 50.99236 | 14300 ft | 414 kts | 110° |
| 2026-05-05 01:57 | 25.28569 | 51.02193 | 13867 ft | 413 kts | 110° |
| 2026-05-05 01:57 | 25.27528 | 51.05137 | 13342 ft | 410 kts | 109° |
| 2026-05-05 01:57 | 25.26879 | 51.08167 | 12826 ft | 403 kts | 92° |
| 2026-05-05 01:57 | 25.26812 | 51.11237 | 12311 ft | 397 kts | 86° |
| 2026-05-05 01:58 | 25.26861 | 51.14281 | 11832 ft | 394 kts | 86° |
| 2026-05-05 01:58 | 25.26912 | 51.17293 | 11421 ft | 387 kts | 86° |
| 2026-05-05 01:58 | 25.26954 | 51.20210 | 11197 ft | 373 kts | 86° |
| 2026-05-05 01:58 | 25.26989 | 51.23019 | 11001 ft | 359 kts | 86° |
| 2026-05-05 01:59 | 25.26917 | 51.25726 | 10798 ft | 348 kts | 95° |
| 2026-05-05 01:59 | 25.26472 | 51.28256 | 10635 ft | 337 kts | 100° |
| 2026-05-05 01:59 | 25.25937 | 51.30731 | 10421 ft | 326 kts | 101° |
| 2026-05-05 01:59 | 25.25410 | 51.33152 | 10060 ft | 322 kts | 100° |
| 2026-05-05 02:00 | 25.24894 | 51.35535 | 9728 ft | 317 kts | 99° |
| 2026-05-05 02:00 | 25.24396 | 51.37860 | 9330 ft | 313 kts | 99° |
| 2026-05-05 02:00 | 25.23898 | 51.40183 | 9035 ft | 307 kts | 99° |
| 2026-05-05 02:00 | 25.23408 | 51.42470 | 8890 ft | 305 kts | 99° |
| 2026-05-05 02:01 | 25.22921 | 51.44749 | 8741 ft | 304 kts | 99° |
| 2026-05-05 02:01 | 25.22279 | 51.46976 | 8591 ft | 305 kts | 113° |
| 2026-05-05 02:01 | 25.20948 | 51.48730 | 8447 ft | 297 kts | 144° |
| 2026-05-05 02:01 | 25.19151 | 51.49749 | 8323 ft | 285 kts | 157° |
| 2026-05-05 02:02 | 25.17345 | 51.50535 | 8189 ft | 273 kts | 158° |
| 2026-05-05 02:02 | 25.15607 | 51.51274 | 8033 ft | 265 kts | 158° |
| 2026-05-05 02:02 | 25.13895 | 51.52011 | 7917 ft | 264 kts | 157° |
| 2026-05-05 02:02 | 25.12188 | 51.52753 | 7788 ft | 263 kts | 157° |
| 2026-05-05 02:03 | 25.10489 | 51.53496 | 7676 ft | 262 kts | 157° |
| 2026-05-05 02:03 | 25.08796 | 51.54243 | 7579 ft | 262 kts | 157° |
| 2026-05-05 02:03 | 25.07128 | 51.54976 | 7493 ft | 261 kts | 157° |
| 2026-05-05 02:03 | 25.05440 | 51.55719 | 7412 ft | 261 kts | 156° |
| 2026-05-05 02:04 | 25.03757 | 51.56461 | 7329 ft | 260 kts | 157° |
| 2026-05-05 02:04 | 25.02074 | 51.57199 | 7260 ft | 260 kts | 157° |
| 2026-05-05 02:04 | 25.00390 | 51.57938 | 7189 ft | 261 kts | 156° |
| 2026-05-05 02:04 | 24.98704 | 51.58671 | 7072 ft | 261 kts | 158° |
| 2026-05-05 02:05 | 24.96929 | 51.59017 | 6947 ft | 260 kts | 186° |
| 2026-05-05 02:05 | 24.95284 | 51.58323 | 6846 ft | 252 kts | 224° |
| 2026-05-05 02:05 | 24.94337 | 51.56780 | 6715 ft | 241 kts | 259° |
| 2026-05-05 02:05 | 24.94275 | 51.54991 | 6612 ft | 232 kts | 289° |
| 2026-05-05 02:06 | 24.95001 | 51.53468 | 6509 ft | 224 kts | 317° |
| 2026-05-05 02:06 | 24.96257 | 51.52504 | 6384 ft | 220 kts | 337° |
| 2026-05-05 02:06 | 24.97663 | 51.51830 | 6307 ft | 221 kts | 339° |
| 2026-05-05 02:06 | 24.99076 | 51.51173 | 6264 ft | 221 kts | 339° |
| 2026-05-05 02:07 | 25.00487 | 51.50509 | 6202 ft | 221 kts | 339° |
| 2026-05-05 02:07 | 25.01905 | 51.49862 | 6118 ft | 220 kts | 341° |
| 2026-05-05 02:07 | 25.03396 | 51.49548 | 5991 ft | 219 kts | 2° |
| 2026-05-05 02:07 | 25.04837 | 51.50015 | 5883 ft | 219 kts | 31° |
| 2026-05-05 02:08 | 25.05886 | 51.51234 | 5759 ft | 224 kts | 58° |
| 2026-05-05 02:08 | 25.06283 | 51.52911 | 5637 ft | 232 kts | 87° |
| 2026-05-05 02:08 | 25.05869 | 51.54640 | 5532 ft | 240 kts | 117° |
| 2026-05-05 02:08 | 25.04674 | 51.55935 | 5403 ft | 246 kts | 149° |
| 2026-05-05 02:09 | 25.03117 | 51.56731 | 5313 ft | 248 kts | 156° |
| 2026-05-05 02:09 | 25.01535 | 51.57429 | 5282 ft | 248 kts | 156° |
| 2026-05-05 02:09 | 24.99927 | 51.58136 | 5239 ft | 250 kts | 156° |
| 2026-05-05 02:09 | 24.98316 | 51.58846 | 5131 ft | 249 kts | 156° |
| 2026-05-05 02:10 | 24.96747 | 51.59641 | 4993 ft | 247 kts | 143° |
| 2026-05-05 02:10 | 24.95639 | 51.61014 | 4893 ft | 237 kts | 111° |
| 2026-05-05 02:10 | 24.95339 | 51.62736 | 4776 ft | 227 kts | 79° |
| 2026-05-05 02:10 | 24.95734 | 51.64390 | 4662 ft | 223 kts | 65° |
| 2026-05-05 02:11 | 24.96336 | 51.65968 | 4560 ft | 223 kts | 63° |
| 2026-05-05 02:11 | 24.97151 | 51.67405 | 4431 ft | 220 kts | 46° |
| 2026-05-05 02:11 | 24.98191 | 51.68639 | 4311 ft | 219 kts | 43° |
| 2026-05-05 02:11 | 24.99282 | 51.69815 | 4188 ft | 219 kts | 39° |
| 2026-05-05 02:12 | 25.00563 | 51.70676 | 4055 ft | 216 kts | 12° |
| 2026-05-05 02:12 | 25.03488 | 51.70266 | 3833 ft | 216 kts | 341° |
| 2026-05-05 02:12 | 25.04892 | 51.69660 | 3712 ft | 217 kts | 339° |
| 2026-05-05 02:13 | 25.06262 | 51.69045 | 3607 ft | 206 kts | 340° |
| 2026-05-05 02:13 | 25.07545 | 51.68472 | 3522 ft | 193 kts | 340° |
| 2026-05-05 02:13 | 25.08784 | 51.67929 | 3341 ft | 191 kts | 340° |
| 2026-05-05 02:13 | 25.10018 | 51.67393 | 3108 ft | 190 kts | 340° |
| 2026-05-05 02:14 | 25.11248 | 51.66849 | 2858 ft | 189 kts | 340° |
| 2026-05-05 02:14 | 25.12449 | 51.66318 | 2608 ft | 183 kts | 340° |
| 2026-05-05 02:14 | 25.13610 | 51.65806 | 2368 ft | 176 kts | 340° |
| 2026-05-05 02:14 | 25.14720 | 51.65316 | 2170 ft | 168 kts | 341° |
| 2026-05-05 02:15 | 25.15779 | 51.64849 | 1967 ft | 165 kts | 341° |
| 2026-05-05 02:15 | 25.16815 | 51.64391 | 1758 ft | 155 kts | 341° |
| 2026-05-05 02:15 | 25.17783 | 51.63963 | 1586 ft | 147 kts | 341° |
| 2026-05-05 02:15 | 25.18728 | 51.63548 | 1384 ft | 146 kts | 341° |
| 2026-05-05 02:16 | 25.19673 | 51.63131 | 1207 ft | 146 kts | 341° |
| 2026-05-05 02:16 | 25.20621 | 51.62712 | 1017 ft | 146 kts | 340° |
| 2026-05-05 02:16 | 25.21567 | 51.62295 | 846 ft | 147 kts | 340° |
| 2026-05-05 02:16 | 25.22513 | 51.61877 | 671 ft | 147 kts | 339° |
| 2026-05-05 02:17 | 25.23463 | 51.61457 | 498 ft | 148 kts | 338° |
| 2026-05-05 02:17 | 25.24419 | 51.61034 | 311 ft | 148 kts | 337° |
| 2026-05-05 02:17 | 25.25379 | 51.60610 | 111 ft | 148 kts | 336° |
| 2026-05-05 02:17 | 25.26306 | 51.60201 | 33 ft | 129 kts | 338° |
| 2026-05-05 02:18 | 25.26803 | 51.59979 | 31 ft | 104 kts | 338° |
| 2026-05-05 02:18 | 25.27353 | 51.59743 | 32 ft | 66 kts | 339° |
| 2026-05-05 02:18 | 25.27705 | 51.59587 | 30 ft | 51 kts | 338° |
| 2026-05-05 02:18 | 25.28040 | 51.59519 | 32 ft | 16 kts | 6° |
| 2026-05-05 02:19 | 25.28115 | 51.59561 | 34 ft | 11 kts | 71° |
| 2026-05-05 02:19 | 25.28080 | 51.59625 | 34 ft | 11 kts | 148° |
| 2026-05-05 02:19 | 25.28030 | 51.59648 | 34 ft | 12 kts | 159° |
| 2026-05-05 02:19 | 25.27943 | 51.59686 | 34 ft | 15 kts | 159° |
| 2026-05-05 02:20 | 25.27841 | 51.59730 | 35 ft | 17 kts | 158° |
| 2026-05-05 02:20 | 25.27725 | 51.59781 | 34 ft | 19 kts | 158° |
| 2026-05-05 02:20 | 25.27598 | 51.59838 | 35 ft | 21 kts | 158° |
| 2026-05-05 02:20 | 25.27459 | 51.59899 | 35 ft | 23 kts | 158° |
| 2026-05-05 02:21 | 25.27307 | 51.59967 | 35 ft | 24 kts | 158° |
| 2026-05-05 02:21 | 25.27145 | 51.60038 | 34 ft | 26 kts | 158° |
| 2026-05-05 02:21 | 25.26971 | 51.60115 | 34 ft | 28 kts | 158° |
| 2026-05-05 02:21 | 25.26787 | 51.60196 | 34 ft | 29 kts | 158° |
| 2026-05-05 02:22 | 25.26618 | 51.60269 | 34 ft | 18 kts | 158° |
| 2026-05-05 02:22 | 25.26521 | 51.60317 | 35 ft | 14 kts | 141° |
| 2026-05-05 02:22 | 25.26520 | 51.60412 | 35 ft | 14 kts | 68° |
| 2026-05-05 02:22 | 25.26558 | 51.60516 | 36 ft | 16 kts | 68° |
| 2026-05-05 02:23 | 25.26589 | 51.60633 | 36 ft | 16 kts | 96° |
| 2026-05-05 02:23 | 25.26547 | 51.60751 | 36 ft | 17 kts | 114° |
| 2026-05-05 02:23 | 25.26501 | 51.60858 | 36 ft | 15 kts | 130° |
| 2026-05-05 02:23 | 25.26426 | 51.60928 | 36 ft | 14 kts | 105° |
| 2026-05-05 02:24 | 25.26422 | 51.60969 | 36 ft | 2 kts | 88° |
| 2026-05-05 02:24 | 25.26425 | 51.60992 | 36 ft | 4 kts | 79° |
| 2026-05-05 02:24 | 25.26437 | 51.61035 | 36 ft | 7 kts | 71° |
| 2026-05-05 02:24 | 25.26453 | 51.61078 | 36 ft | 4 kts | 68° |
| 2026-05-05 02:25 | 25.26458 | 51.61092 | 36 ft | 1 kts | 68° |
| 2026-05-05 02:25 | 25.26459 | 51.61096 | 36 ft | 0 kts | 68° |